sensor_id;sensor_type;location;lat;lon;timestamp;temperature;humidity
46882;DHT22;44112;38.408;-122.974;2022-11-20T00:01:25;20.70;35.70
46882;DHT22;44112;38.408;-122.974;2022-11-20T00:03:53;20.70;35.70
46882;DHT22;44112;38.408;-122.974;2022-11-20T00:06:22;20.70;36.00
46882;DHT22;44112;38.408;-122.974;2022-11-20T00:08:50;20.70;35.80
46882;DHT22;44112;38.408;-122.974;2022-11-20T00:11:19;20.70;35.80
46882;DHT22;44112;38.408;-122.974;2022-11-20T00:13:47;20.70;35.80
46882;DHT22;44112;38.408;-122.974;2022-11-20T00:16:17;20.70;35.80
46882;DHT22;44112;38.408;-122.974;2022-11-20T00:18:44;20.70;35.90
46882;DHT22;44112;38.408;-122.974;2022-11-20T00:21:14;20.60;35.90
46882;DHT22;44112;38.408;-122.974;2022-11-20T00:23:41;20.60;35.90
46882;DHT22;44112;38.408;-122.974;2022-11-20T00:26:11;20.60;35.80
46882;DHT22;44112;38.408;-122.974;2022-11-20T00:28:39;20.60;35.90
46882;DHT22;44112;38.408;-122.974;2022-11-20T00:31:15;20.60;36.00
46882;DHT22;44112;38.408;-122.974;2022-11-20T00:33:43;20.60;36.00
46882;DHT22;44112;38.408;-122.974;2022-11-20T00:36:15;20.60;36.00
46882;DHT22;44112;38.408;-122.974;2022-11-20T00:38:42;20.60;36.00
46882;DHT22;44112;38.408;-122.974;2022-11-20T00:41:12;20.60;36.00
46882;DHT22;44112;38.408;-122.974;2022-11-20T00:43:41;20.50;36.00
46882;DHT22;44112;38.408;-122.974;2022-11-20T00:46:13;20.60;36.10
46882;DHT22;44112;38.408;-122.974;2022-11-20T00:48:41;20.50;36.00
46882;DHT22;44112;38.408;-122.974;2022-11-20T00:51:13;20.50;36.00
46882;DHT22;44112;38.408;-122.974;2022-11-20T00:53:40;20.50;36.00
46882;DHT22;44112;38.408;-122.974;2022-11-20T00:56:10;20.40;35.80
46882;DHT22;44112;38.408;-122.974;2022-11-20T00:58:39;20.40;35.90
46882;DHT22;44112;38.408;-122.974;2022-11-20T01:03:35;20.40;36.10
46882;DHT22;44112;38.408;-122.974;2022-11-20T01:06:05;20.40;36.10
46882;DHT22;44112;38.408;-122.974;2022-11-20T01:08:35;20.40;36.10
46882;DHT22;44112;38.408;-122.974;2022-11-20T01:11:04;20.40;36.10
46882;DHT22;44112;38.408;-122.974;2022-11-20T01:13:32;20.30;35.90
46882;DHT22;44112;38.408;-122.974;2022-11-20T01:16:16;20.30;35.90
46882;DHT22;44112;38.408;-122.974;2022-11-20T01:18:46;20.30;36.00
46882;DHT22;44112;38.408;-122.974;2022-11-20T01:21:16;20.30;36.10
46882;DHT22;44112;38.408;-122.974;2022-11-20T01:23:44;20.30;36.10
46882;DHT22;44112;38.408;-122.974;2022-11-20T01:26:20;20.30;36.10
46882;DHT22;44112;38.408;-122.974;2022-11-20T01:28:47;20.20;36.00
46882;DHT22;44112;38.408;-122.974;2022-11-20T01:31:27;20.20;36.20
46882;DHT22;44112;38.408;-122.974;2022-11-20T01:33:57;20.20;36.30
46882;DHT22;44112;38.408;-122.974;2022-11-20T01:36:26;20.30;36.40
46882;DHT22;44112;38.408;-122.974;2022-11-20T01:38:54;20.30;36.40
46882;DHT22;44112;38.408;-122.974;2022-11-20T01:41:22;20.30;36.30
46882;DHT22;44112;38.408;-122.974;2022-11-20T01:44:07;20.30;36.40
46882;DHT22;44112;38.408;-122.974;2022-11-20T01:46:38;20.20;36.40
46882;DHT22;44112;38.408;-122.974;2022-11-20T01:49:11;20.30;36.50
46882;DHT22;44112;38.408;-122.974;2022-11-20T01:51:48;20.30;36.40
46882;DHT22;44112;38.408;-122.974;2022-11-20T01:54:20;20.20;36.40
46882;DHT22;44112;38.408;-122.974;2022-11-20T01:56:48;20.30;36.50
46882;DHT22;44112;38.408;-122.974;2022-11-20T01:59:19;20.30;36.50
46882;DHT22;44112;38.408;-122.974;2022-11-20T02:01:47;20.20;36.40
46882;DHT22;44112;38.408;-122.974;2022-11-20T02:04:13;20.20;36.40
46882;DHT22;44112;38.408;-122.974;2022-11-20T02:06:48;20.20;36.40
46882;DHT22;44112;38.408;-122.974;2022-11-20T02:09:15;20.10;36.40
46882;DHT22;44112;38.408;-122.974;2022-11-20T02:11:42;20.10;36.20
46882;DHT22;44112;38.408;-122.974;2022-11-20T02:14:09;20.10;36.30
46882;DHT22;44112;38.408;-122.974;2022-11-20T02:16:39;20.10;36.50
46882;DHT22;44112;38.408;-122.974;2022-11-20T02:19:13;20.00;36.50
46882;DHT22;44112;38.408;-122.974;2022-11-20T02:21:56;20.10;36.80
46882;DHT22;44112;38.408;-122.974;2022-11-20T02:24:25;20.10;36.90
46882;DHT22;44112;38.408;-122.974;2022-11-20T02:27:02;20.10;37.00
46882;DHT22;44112;38.408;-122.974;2022-11-20T02:32:04;20.10;36.90
46882;DHT22;44112;38.408;-122.974;2022-11-20T02:34:30;20.10;36.90
46882;DHT22;44112;38.408;-122.974;2022-11-20T02:36:59;20.10;37.00
46882;DHT22;44112;38.408;-122.974;2022-11-20T02:39:27;20.10;37.00
46882;DHT22;44112;38.408;-122.974;2022-11-20T02:41:55;20.00;36.90
46882;DHT22;44112;38.408;-122.974;2022-11-20T02:44:22;20.10;37.00
46882;DHT22;44112;38.408;-122.974;2022-11-20T02:46:48;20.00;36.90
46882;DHT22;44112;38.408;-122.974;2022-11-20T02:49:15;20.00;37.00
46882;DHT22;44112;38.408;-122.974;2022-11-20T02:51:42;20.00;37.00
46882;DHT22;44112;38.408;-122.974;2022-11-20T02:54:09;20.00;37.10
46882;DHT22;44112;38.408;-122.974;2022-11-20T02:56:38;20.00;37.10
46882;DHT22;44112;38.408;-122.974;2022-11-20T02:59:05;20.00;37.30
46882;DHT22;44112;38.408;-122.974;2022-11-20T03:01:32;20.00;37.30
46882;DHT22;44112;38.408;-122.974;2022-11-20T03:03:59;20.00;37.30
46882;DHT22;44112;38.408;-122.974;2022-11-20T03:06:25;20.00;37.30
46882;DHT22;44112;38.408;-122.974;2022-11-20T03:08:52;20.00;37.30
46882;DHT22;44112;38.408;-122.974;2022-11-20T03:11:18;20.00;37.30
46882;DHT22;44112;38.408;-122.974;2022-11-20T03:13:45;20.00;37.30
46882;DHT22;44112;38.408;-122.974;2022-11-20T03:16:17;20.00;37.30
46882;DHT22;44112;38.408;-122.974;2022-11-20T03:18:44;19.90;37.40
46882;DHT22;44112;38.408;-122.974;2022-11-20T03:21:12;20.00;37.30
46882;DHT22;44112;38.408;-122.974;2022-11-20T03:23:40;19.90;37.40
46882;DHT22;44112;38.408;-122.974;2022-11-20T03:26:16;19.90;37.40
46882;DHT22;44112;38.408;-122.974;2022-11-20T03:28:58;19.90;37.40
46882;DHT22;44112;38.408;-122.974;2022-11-20T03:31:28;19.90;37.50
46882;DHT22;44112;38.408;-122.974;2022-11-20T03:33:56;19.80;37.40
46882;DHT22;44112;38.408;-122.974;2022-11-20T03:36:24;20.00;37.60
46882;DHT22;44112;38.408;-122.974;2022-11-20T03:38:50;20.50;36.90
46882;DHT22;44112;38.408;-122.974;2022-11-20T03:41:22;21.00;36.30
46882;DHT22;44112;38.408;-122.974;2022-11-20T03:43:56;21.50;35.80
46882;DHT22;44112;38.408;-122.974;2022-11-20T03:46:24;21.90;35.10
46882;DHT22;44112;38.408;-122.974;2022-11-20T03:48:51;22.20;34.50
46882;DHT22;44112;38.408;-122.974;2022-11-20T03:51:19;22.40;34.10
46882;DHT22;44112;38.408;-122.974;2022-11-20T03:53:47;22.50;33.80
46882;DHT22;44112;38.408;-122.974;2022-11-20T03:56:17;22.60;34.30
46882;DHT22;44112;38.408;-122.974;2022-11-20T03:58:44;22.60;33.40
46882;DHT22;44112;38.408;-122.974;2022-11-20T04:01:13;22.70;33.50
46882;DHT22;44112;38.408;-122.974;2022-11-20T04:03:41;22.80;33.30
46882;DHT22;44112;38.408;-122.974;2022-11-20T04:06:12;23.00;33.00
46882;DHT22;44112;38.408;-122.974;2022-11-20T04:08:42;23.20;32.90
46882;DHT22;44112;38.408;-122.974;2022-11-20T04:11:14;23.50;32.70
46882;DHT22;44112;38.408;-122.974;2022-11-20T04:13:42;23.80;32.40
46882;DHT22;44112;38.408;-122.974;2022-11-20T04:16:10;24.10;32.10
46882;DHT22;44112;38.408;-122.974;2022-11-20T04:18:36;24.50;31.70
46882;DHT22;44112;38.408;-122.974;2022-11-20T04:21:04;25.00;31.10
46882;DHT22;44112;38.408;-122.974;2022-11-20T04:23:31;25.30;30.80
46882;DHT22;44112;38.408;-122.974;2022-11-20T04:28:29;26.00;30.20
46882;DHT22;44112;38.408;-122.974;2022-11-20T04:31:23;26.30;30.10
46882;DHT22;44112;38.408;-122.974;2022-11-20T04:33:48;26.50;30.00
46882;DHT22;44112;38.408;-122.974;2022-11-20T04:36:20;26.70;30.00
46882;DHT22;44112;38.408;-122.974;2022-11-20T04:38:54;26.90;30.20
46882;DHT22;44112;38.408;-122.974;2022-11-20T04:41:22;27.20;30.40
46882;DHT22;44112;38.408;-122.974;2022-11-20T04:43:51;27.30;30.40
46882;DHT22;44112;38.408;-122.974;2022-11-20T04:46:20;27.40;30.50
46882;DHT22;44112;38.408;-122.974;2022-11-20T04:48:47;27.60;30.50
46882;DHT22;44112;38.408;-122.974;2022-11-20T04:51:14;27.80;30.50
46882;DHT22;44112;38.408;-122.974;2022-11-20T04:53:40;28.00;30.60
46882;DHT22;44112;38.408;-122.974;2022-11-20T04:56:08;28.20;30.60
46882;DHT22;44112;38.408;-122.974;2022-11-20T04:58:36;28.30;30.60
46882;DHT22;44112;38.408;-122.974;2022-11-20T05:01:13;28.50;30.70
46882;DHT22;44112;38.408;-122.974;2022-11-20T05:03:41;28.70;30.70
46882;DHT22;44112;38.408;-122.974;2022-11-20T05:06:09;28.80;30.70
46882;DHT22;44112;38.408;-122.974;2022-11-20T05:08:36;28.80;31.10
46882;DHT22;44112;38.408;-122.974;2022-11-20T05:11:10;29.00;31.50
46882;DHT22;44112;38.408;-122.974;2022-11-20T05:13:37;29.20;32.30
46882;DHT22;44112;38.408;-122.974;2022-11-20T05:16:09;29.30;33.10
46882;DHT22;44112;38.408;-122.974;2022-11-20T05:18:36;29.50;33.80
46882;DHT22;44112;38.408;-122.974;2022-11-20T05:21:06;29.60;33.40
46882;DHT22;44112;38.408;-122.974;2022-11-20T05:23:33;29.60;34.00
46882;DHT22;44112;38.408;-122.974;2022-11-20T05:26:01;29.70;33.20
46882;DHT22;44112;38.408;-122.974;2022-11-20T05:28:29;29.80;33.10
46882;DHT22;44112;38.408;-122.974;2022-11-20T05:31:03;29.80;32.60
46882;DHT22;44112;38.408;-122.974;2022-11-20T05:33:30;29.80;32.30
46882;DHT22;44112;38.408;-122.974;2022-11-20T05:35:59;29.70;31.70
46882;DHT22;44112;38.408;-122.974;2022-11-20T05:38:26;29.70;31.50
46882;DHT22;44112;38.408;-122.974;2022-11-20T05:40:52;29.70;31.50
46882;DHT22;44112;38.408;-122.974;2022-11-20T05:43:18;29.60;31.10
46882;DHT22;44112;38.408;-122.974;2022-11-20T05:45:53;29.60;31.00
46882;DHT22;44112;38.408;-122.974;2022-11-20T05:48:20;29.60;31.10
46882;DHT22;44112;38.408;-122.974;2022-11-20T05:50:47;29.60;31.10
46882;DHT22;44112;38.408;-122.974;2022-11-20T05:53:14;29.70;31.10
46882;DHT22;44112;38.408;-122.974;2022-11-20T05:55:41;29.80;31.20
46882;DHT22;44112;38.408;-122.974;2022-11-20T05:58:07;29.80;31.20
46882;DHT22;44112;38.408;-122.974;2022-11-20T06:00:34;29.80;31.20
46882;DHT22;44112;38.408;-122.974;2022-11-20T06:03:02;29.80;31.10
46882;DHT22;44112;38.408;-122.974;2022-11-20T06:05:30;29.90;31.10
46882;DHT22;44112;38.408;-122.974;2022-11-20T06:07:56;29.90;31.00
46882;DHT22;44112;38.408;-122.974;2022-11-20T06:10:23;29.90;30.90
46882;DHT22;44112;38.408;-122.974;2022-11-20T06:12:49;29.90;30.90
46882;DHT22;44112;38.408;-122.974;2022-11-20T06:15:16;29.90;30.90
46882;DHT22;44112;38.408;-122.974;2022-11-20T06:17:42;29.90;30.90
46882;DHT22;44112;38.408;-122.974;2022-11-20T06:20:10;29.80;30.90
46882;DHT22;44112;38.408;-122.974;2022-11-20T06:22:37;29.90;30.90
46882;DHT22;44112;38.408;-122.974;2022-11-20T06:25:03;29.80;30.90
46882;DHT22;44112;38.408;-122.974;2022-11-20T06:27:30;29.80;31.00
46882;DHT22;44112;38.408;-122.974;2022-11-20T06:29:56;29.70;30.80
46882;DHT22;44112;38.408;-122.974;2022-11-20T06:32:23;29.70;30.90
46882;DHT22;44112;38.408;-122.974;2022-11-20T06:34:50;29.70;31.00
46882;DHT22;44112;38.408;-122.974;2022-11-20T06:37:17;29.60;30.90
46882;DHT22;44112;38.408;-122.974;2022-11-20T06:39:44;29.60;31.00
46882;DHT22;44112;38.408;-122.974;2022-11-20T06:42:11;29.50;31.00
46882;DHT22;44112;38.408;-122.974;2022-11-20T06:44:37;29.50;30.90
46882;DHT22;44112;38.408;-122.974;2022-11-20T06:47:04;29.40;30.90
46882;DHT22;44112;38.408;-122.974;2022-11-20T06:49:31;29.40;31.00
46882;DHT22;44112;38.408;-122.974;2022-11-20T06:52:00;29.40;31.10
46882;DHT22;44112;38.408;-122.974;2022-11-20T06:54:26;29.30;31.00
46882;DHT22;44112;38.408;-122.974;2022-11-20T06:56:53;29.30;31.10
46882;DHT22;44112;38.408;-122.974;2022-11-20T06:59:19;29.20;31.10
46882;DHT22;44112;38.408;-122.974;2022-11-20T07:01:45;29.20;31.10
46882;DHT22;44112;38.408;-122.974;2022-11-20T07:04:12;29.10;31.00
46882;DHT22;44112;38.408;-122.974;2022-11-20T07:06:39;29.10;31.20
46882;DHT22;44112;38.408;-122.974;2022-11-20T07:09:05;29.00;31.10
46882;DHT22;44112;38.408;-122.974;2022-11-20T07:11:32;29.00;31.10
46882;DHT22;44112;38.408;-122.974;2022-11-20T07:13:59;29.00;31.10
46882;DHT22;44112;38.408;-122.974;2022-11-20T07:16:26;28.90;31.20
46882;DHT22;44112;38.408;-122.974;2022-11-20T07:18:54;28.80;31.10
46882;DHT22;44112;38.408;-122.974;2022-11-20T07:21:21;28.80;31.20
46882;DHT22;44112;38.408;-122.974;2022-11-20T07:23:47;28.80;31.30
46882;DHT22;44112;38.408;-122.974;2022-11-20T07:26:14;28.70;31.20
46882;DHT22;44112;38.408;-122.974;2022-11-20T07:28:43;28.60;31.30
46882;DHT22;44112;38.408;-122.974;2022-11-20T07:31:10;28.60;31.30
46882;DHT22;44112;38.408;-122.974;2022-11-20T07:33:37;28.50;31.40
46882;DHT22;44112;38.408;-122.974;2022-11-20T07:36:05;28.50;31.40
46882;DHT22;44112;38.408;-122.974;2022-11-20T07:38:31;28.40;31.50
46882;DHT22;44112;38.408;-122.974;2022-11-20T07:40:58;28.30;31.40
46882;DHT22;44112;38.408;-122.974;2022-11-20T07:43:27;28.30;31.40
46882;DHT22;44112;38.408;-122.974;2022-11-20T07:45:58;28.20;31.50
46882;DHT22;44112;38.408;-122.974;2022-11-20T07:48:25;28.10;31.50
46882;DHT22;44112;38.408;-122.974;2022-11-20T07:50:56;28.10;31.50
46882;DHT22;44112;38.408;-122.974;2022-11-20T07:53:23;28.00;31.40
46882;DHT22;44112;38.408;-122.974;2022-11-20T07:55:50;27.90;31.50
46882;DHT22;44112;38.408;-122.974;2022-11-20T07:58:20;27.80;31.60
46882;DHT22;44112;38.408;-122.974;2022-11-20T08:00:47;27.70;31.80
46882;DHT22;44112;38.408;-122.974;2022-11-20T08:03:13;27.70;31.90
46882;DHT22;44112;38.408;-122.974;2022-11-20T08:05:40;27.50;31.80
46882;DHT22;44112;38.408;-122.974;2022-11-20T08:08:07;27.50;32.00
46882;DHT22;44112;38.408;-122.974;2022-11-20T08:10:34;27.40;31.90
46882;DHT22;44112;38.408;-122.974;2022-11-20T08:13:01;27.40;31.90
46882;DHT22;44112;38.408;-122.974;2022-11-20T08:15:49;27.30;32.00
46882;DHT22;44112;38.408;-122.974;2022-11-20T08:18:20;27.30;32.00
46882;DHT22;44112;38.408;-122.974;2022-11-20T08:20:46;27.20;32.00
46882;DHT22;44112;38.408;-122.974;2022-11-20T08:23:13;27.10;32.00
46882;DHT22;44112;38.408;-122.974;2022-11-20T08:25:39;27.00;32.00
46882;DHT22;44112;38.408;-122.974;2022-11-20T08:28:08;26.90;32.10
46882;DHT22;44112;38.408;-122.974;2022-11-20T08:30:36;26.80;32.10
46882;DHT22;44112;38.408;-122.974;2022-11-20T08:33:08;26.80;32.30
46882;DHT22;44112;38.408;-122.974;2022-11-20T08:35:35;26.70;32.30
46882;DHT22;44112;38.408;-122.974;2022-11-20T08:38:04;26.60;32.40
46882;DHT22;44112;38.408;-122.974;2022-11-20T08:40:31;26.60;32.40
46882;DHT22;44112;38.408;-122.974;2022-11-20T08:42:58;26.50;32.40
46882;DHT22;44112;38.408;-122.974;2022-11-20T08:45:25;26.40;32.40
46882;DHT22;44112;38.408;-122.974;2022-11-20T08:47:52;26.40;32.40
46882;DHT22;44112;38.408;-122.974;2022-11-20T08:50:18;26.30;32.50
46882;DHT22;44112;38.408;-122.974;2022-11-20T08:52:45;26.30;32.50
46882;DHT22;44112;38.408;-122.974;2022-11-20T08:55:12;26.20;32.50
46882;DHT22;44112;38.408;-122.974;2022-11-20T08:57:39;26.20;33.20
46882;DHT22;44112;38.408;-122.974;2022-11-20T09:00:06;26.10;32.50
46882;DHT22;44112;38.408;-122.974;2022-11-20T09:02:33;26.00;32.60
46882;DHT22;44112;38.408;-122.974;2022-11-20T09:05:00;25.90;32.70
46882;DHT22;44112;38.408;-122.974;2022-11-20T09:07:28;25.90;32.70
46882;DHT22;44112;38.408;-122.974;2022-11-20T09:09:56;25.80;32.80
46882;DHT22;44112;38.408;-122.974;2022-11-20T09:12:22;25.80;32.70
46882;DHT22;44112;38.408;-122.974;2022-11-20T09:14:49;25.80;32.60
46882;DHT22;44112;38.408;-122.974;2022-11-20T09:17:15;25.70;32.70
46882;DHT22;44112;38.408;-122.974;2022-11-20T09:19:42;25.50;32.60
46882;DHT22;44112;38.408;-122.974;2022-11-20T09:22:09;25.50;32.60
46882;DHT22;44112;38.408;-122.974;2022-11-20T09:24:35;25.30;32.70
46882;DHT22;44112;38.408;-122.974;2022-11-20T09:27:05;25.20;32.90
46882;DHT22;44112;38.408;-122.974;2022-11-20T09:29:32;25.10;33.00
46882;DHT22;44112;38.408;-122.974;2022-11-20T09:31:58;25.00;33.10
46882;DHT22;44112;38.408;-122.974;2022-11-20T09:34:24;25.00;33.20
46882;DHT22;44112;38.408;-122.974;2022-11-20T09:36:52;25.00;33.20
46882;DHT22;44112;38.408;-122.974;2022-11-20T09:39:18;25.10;33.10
46882;DHT22;44112;38.408;-122.974;2022-11-20T09:42:10;25.10;33.00
46882;DHT22;44112;38.408;-122.974;2022-11-20T09:45:58;25.00;32.90
46882;DHT22;44112;38.408;-122.974;2022-11-20T09:56:09;24.80;33.10
46882;DHT22;44112;38.408;-122.974;2022-11-20T09:58:44;24.80;33.10
46882;DHT22;44112;38.408;-122.974;2022-11-20T10:01:20;24.70;33.10
46882;DHT22;44112;38.408;-122.974;2022-11-20T10:07:23;24.50;33.30
46882;DHT22;44112;38.408;-122.974;2022-11-20T10:09:55;24.40;33.30
46882;DHT22;44112;38.408;-122.974;2022-11-20T10:24:37;24.30;33.40
46882;DHT22;44112;38.408;-122.974;2022-11-20T10:27:21;24.20;33.30
46882;DHT22;44112;38.408;-122.974;2022-11-20T10:30:02;24.10;33.30
46882;DHT22;44112;38.408;-122.974;2022-11-20T10:32:37;24.00;33.30
46882;DHT22;44112;38.408;-122.974;2022-11-20T10:35:16;23.90;33.40
46882;DHT22;44112;38.408;-122.974;2022-11-20T10:37:49;23.90;33.50
46882;DHT22;44112;38.408;-122.974;2022-11-20T10:40:28;23.90;33.40
46882;DHT22;44112;38.408;-122.974;2022-11-20T10:43:27;23.90;33.30
46882;DHT22;44112;38.408;-122.974;2022-11-20T10:46:10;23.90;33.20
46882;DHT22;44112;38.408;-122.974;2022-11-20T10:48:41;23.80;33.20
46882;DHT22;44112;38.408;-122.974;2022-11-20T10:56:51;23.70;33.20
46882;DHT22;44112;38.408;-122.974;2022-11-20T11:00:03;23.60;33.10
46882;DHT22;44112;38.408;-122.974;2022-11-20T11:02:24;23.60;33.20
46882;DHT22;44112;38.408;-122.974;2022-11-20T11:04:52;23.50;33.20
46882;DHT22;44112;38.408;-122.974;2022-11-20T11:07:33;23.50;33.20
46882;DHT22;44112;38.408;-122.974;2022-11-20T11:10:20;23.40;33.20
46882;DHT22;44112;38.408;-122.974;2022-11-20T11:12:48;23.40;33.20
46882;DHT22;44112;38.408;-122.974;2022-11-20T11:17:55;23.40;33.10
46882;DHT22;44112;38.408;-122.974;2022-11-20T11:20:26;23.30;33.10
46882;DHT22;44112;38.408;-122.974;2022-11-20T11:22:55;23.20;33.10
46882;DHT22;44112;38.408;-122.974;2022-11-20T11:25:35;23.20;33.10
46882;DHT22;44112;38.408;-122.974;2022-11-20T11:28:25;23.10;33.10
46882;DHT22;44112;38.408;-122.974;2022-11-20T11:30:52;23.10;33.00
46882;DHT22;44112;38.408;-122.974;2022-11-20T11:33:44;23.10;33.20
46882;DHT22;44112;38.408;-122.974;2022-11-20T11:36:21;23.00;33.10
46882;DHT22;44112;38.408;-122.974;2022-11-20T11:38:51;23.00;33.20
46882;DHT22;44112;38.408;-122.974;2022-11-20T11:41:25;22.90;33.10
46882;DHT22;44112;38.408;-122.974;2022-11-20T11:44:21;22.90;33.20
46882;DHT22;44112;38.408;-122.974;2022-11-20T11:47:36;22.90;33.10
46882;DHT22;44112;38.408;-122.974;2022-11-20T12:01:03;22.60;33.10
46882;DHT22;44112;38.408;-122.974;2022-11-20T12:03:40;22.60;33.10
46882;DHT22;44112;38.408;-122.974;2022-11-20T12:06:15;22.50;33.10
46882;DHT22;44112;38.408;-122.974;2022-11-20T12:08:44;22.50;33.10
46882;DHT22;44112;38.408;-122.974;2022-11-20T12:13:54;22.40;33.10
46882;DHT22;44112;38.408;-122.974;2022-11-20T12:16:23;22.40;33.10
46882;DHT22;44112;38.408;-122.974;2022-11-20T12:18:52;22.40;33.00
46882;DHT22;44112;38.408;-122.974;2022-11-20T12:24:35;22.30;33.00
46882;DHT22;44112;38.408;-122.974;2022-11-20T12:41:43;22.10;33.20
46882;DHT22;44112;38.408;-122.974;2022-11-20T12:50:10;22.00;33.20
46882;DHT22;44112;38.408;-122.974;2022-11-20T12:52:53;22.00;33.20
46882;DHT22;44112;38.408;-122.974;2022-11-20T12:55:28;21.90;33.10
46882;DHT22;44112;38.408;-122.974;2022-11-20T13:00:31;21.90;33.10
46882;DHT22;44112;38.408;-122.974;2022-11-20T13:03:13;21.90;33.20
46882;DHT22;44112;38.408;-122.974;2022-11-20T13:06:05;21.80;33.10
46882;DHT22;44112;38.408;-122.974;2022-11-20T13:08:39;21.80;33.20
46882;DHT22;44112;38.408;-122.974;2022-11-20T13:11:27;21.70;33.20
46882;DHT22;44112;38.408;-122.974;2022-11-20T13:19:24;21.60;33.30
46882;DHT22;44112;38.408;-122.974;2022-11-20T13:21:51;21.60;33.30
46882;DHT22;44112;38.408;-122.974;2022-11-20T13:29:42;21.50;33.20
46882;DHT22;44112;38.408;-122.974;2022-11-20T13:32:14;21.50;33.20
46882;DHT22;44112;38.408;-122.974;2022-11-20T13:35:02;21.50;33.20
46882;DHT22;44112;38.408;-122.974;2022-11-20T13:37:37;21.40;33.10
46882;DHT22;44112;38.408;-122.974;2022-11-20T13:45:23;21.30;33.20
46882;DHT22;44112;38.408;-122.974;2022-11-20T13:47:51;21.30;33.20
46882;DHT22;44112;38.408;-122.974;2022-11-20T13:50:18;21.30;33.30
46882;DHT22;44112;38.408;-122.974;2022-11-20T14:00:56;21.20;33.20
46882;DHT22;44112;38.408;-122.974;2022-11-20T14:03:24;21.20;33.20
46882;DHT22;44112;38.408;-122.974;2022-11-20T14:06:05;21.10;33.10
46882;DHT22;44112;38.408;-122.974;2022-11-20T14:08:47;21.10;33.10
46882;DHT22;44112;38.408;-122.974;2022-11-20T14:11:19;21.10;33.20
46882;DHT22;44112;38.408;-122.974;2022-11-20T14:14:02;21.10;33.20
46882;DHT22;44112;38.408;-122.974;2022-11-20T14:16:35;21.00;33.20
46882;DHT22;44112;38.408;-122.974;2022-11-20T14:21:48;21.00;33.40
46882;DHT22;44112;38.408;-122.974;2022-11-20T14:24:20;21.00;33.50
46882;DHT22;44112;38.408;-122.974;2022-11-20T14:26:47;20.90;33.40
46882;DHT22;44112;38.408;-122.974;2022-11-20T14:29:29;20.90;33.50
46882;DHT22;44112;38.408;-122.974;2022-11-20T14:31:56;20.90;33.50
46882;DHT22;44112;38.408;-122.974;2022-11-20T14:34:28;20.80;33.40
46882;DHT22;44112;38.408;-122.974;2022-11-20T14:37:04;20.80;34.10
46882;DHT22;44112;38.408;-122.974;2022-11-20T14:39:40;20.80;33.40
46882;DHT22;44112;38.408;-122.974;2022-11-20T14:42:19;20.70;33.40
46882;DHT22;44112;38.408;-122.974;2022-11-20T14:44:47;20.70;33.40
46882;DHT22;44112;38.408;-122.974;2022-11-20T14:47:17;20.70;33.40
46882;DHT22;44112;38.408;-122.974;2022-11-20T14:49:45;20.60;33.50
46882;DHT22;44112;38.408;-122.974;2022-11-20T14:52:18;20.60;33.50
46882;DHT22;44112;38.408;-122.974;2022-11-20T14:54:47;20.60;33.40
46882;DHT22;44112;38.408;-122.974;2022-11-20T14:57:40;20.50;33.40
46882;DHT22;44112;38.408;-122.974;2022-11-20T15:02:44;20.50;33.30
46882;DHT22;44112;38.408;-122.974;2022-11-20T15:05:12;20.50;33.30
46882;DHT22;44112;38.408;-122.974;2022-11-20T15:07:41;20.50;33.30
46882;DHT22;44112;38.408;-122.974;2022-11-20T15:10:25;20.50;33.30
46882;DHT22;44112;38.408;-122.974;2022-11-20T15:12:53;20.40;33.30
46882;DHT22;44112;38.408;-122.974;2022-11-20T15:18:13;20.40;33.30
46882;DHT22;44112;38.408;-122.974;2022-11-20T15:20:41;20.40;33.30
46882;DHT22;44112;38.408;-122.974;2022-11-20T15:23:16;20.30;33.30
46882;DHT22;44112;38.408;-122.974;2022-11-20T15:25:44;20.30;33.30
46882;DHT22;44112;38.408;-122.974;2022-11-20T15:30:48;20.30;33.30
46882;DHT22;44112;38.408;-122.974;2022-11-20T15:33:15;20.30;33.30
46882;DHT22;44112;38.408;-122.974;2022-11-20T15:35:43;20.30;33.20
46882;DHT22;44112;38.408;-122.974;2022-11-20T15:38:10;20.30;33.20
46882;DHT22;44112;38.408;-122.974;2022-11-20T15:40:36;20.20;33.20
46882;DHT22;44112;38.408;-122.974;2022-11-20T15:43:03;20.20;33.20
46882;DHT22;44112;38.408;-122.974;2022-11-20T15:48:01;20.10;33.20
46882;DHT22;44112;38.408;-122.974;2022-11-20T15:50:37;20.10;33.30
46882;DHT22;44112;38.408;-122.974;2022-11-20T15:53:04;20.10;34.00
46882;DHT22;44112;38.408;-122.974;2022-11-20T15:55:31;20.10;33.40
46882;DHT22;44112;38.408;-122.974;2022-11-20T15:57:58;20.00;33.30
46882;DHT22;44112;38.408;-122.974;2022-11-20T16:00:24;20.00;33.30
46882;DHT22;44112;38.408;-122.974;2022-11-20T16:02:51;20.00;33.40
46882;DHT22;44112;38.408;-122.974;2022-11-20T16:05:17;20.00;33.30
46882;DHT22;44112;38.408;-122.974;2022-11-20T16:07:44;20.00;33.30
46882;DHT22;44112;38.408;-122.974;2022-11-20T16:10:11;20.00;33.30
46882;DHT22;44112;38.408;-122.974;2022-11-20T16:12:37;20.00;33.30
46882;DHT22;44112;38.408;-122.974;2022-11-20T16:15:21;19.90;33.30
46882;DHT22;44112;38.408;-122.974;2022-11-20T16:18:07;20.00;33.30
46882;DHT22;44112;38.408;-122.974;2022-11-20T16:20:34;19.90;33.30
46882;DHT22;44112;38.408;-122.974;2022-11-20T16:23:01;19.80;33.40
46882;DHT22;44112;38.408;-122.974;2022-11-20T16:25:28;19.80;33.40
46882;DHT22;44112;38.408;-122.974;2022-11-20T16:27:54;19.80;33.50
46882;DHT22;44112;38.408;-122.974;2022-11-20T16:30:20;19.80;33.50
46882;DHT22;44112;38.408;-122.974;2022-11-20T16:32:47;19.80;33.40
46882;DHT22;44112;38.408;-122.974;2022-11-20T16:35:13;19.80;33.40
46882;DHT22;44112;38.408;-122.974;2022-11-20T16:37:40;19.80;33.30
46882;DHT22;44112;38.408;-122.974;2022-11-20T16:40:08;19.80;33.30
46882;DHT22;44112;38.408;-122.974;2022-11-20T16:42:36;19.80;33.40
46882;DHT22;44112;38.408;-122.974;2022-11-20T16:45:04;19.80;33.40
46882;DHT22;44112;38.408;-122.974;2022-11-20T16:47:34;19.70;33.30
46882;DHT22;44112;38.408;-122.974;2022-11-20T16:50:04;19.70;33.30
46882;DHT22;44112;38.408;-122.974;2022-11-20T16:52:31;19.70;33.40
46882;DHT22;44112;38.408;-122.974;2022-11-20T16:54:58;19.60;33.50
46882;DHT22;44112;38.408;-122.974;2022-11-20T16:57:27;19.60;33.50
46882;DHT22;44112;38.408;-122.974;2022-11-20T16:59:55;19.60;33.50
46882;DHT22;44112;38.408;-122.974;2022-11-20T17:02:21;19.50;33.40
46882;DHT22;44112;38.408;-122.974;2022-11-20T17:04:48;19.50;33.50